createdAt,value
2023-01-15T00:00:26.795Z,77.22
2023-01-15T00:01:26.794Z,76.88
2023-01-15T00:02:26.771Z,77.63
2023-01-15T00:03:26.755Z,77.94
2023-01-15T00:04:26.779Z,77.94
2023-01-15T00:05:26.715Z,78.64
2023-01-15T00:06:26.765Z,79.09
2023-01-15T00:07:26.699Z,79.46
2023-01-15T00:08:26.678Z,79.80
2023-01-15T00:09:26.871Z,79.46
2023-01-15T00:10:26.669Z,80.51
2023-01-15T00:11:26.653Z,80.31
2023-01-15T00:12:26.679Z,81.43
2023-01-15T00:13:26.736Z,80.92
2023-01-15T00:14:26.691Z,80.62
2023-01-15T00:15:26.633Z,80.51
2023-01-15T00:16:26.592Z,81.33
2023-01-15T00:17:26.723Z,81.73
2023-01-15T00:18:26.565Z,81.93
2023-01-15T00:19:26.601Z,82.59
2023-01-15T00:20:26.711Z,81.93
2023-01-15T00:21:26.551Z,82.38
2023-01-15T00:22:26.565Z,83.40
2023-01-15T00:23:26.558Z,83.95
2023-01-15T00:24:26.525Z,84.15
2023-01-15T00:25:26.541Z,84.25
2023-01-15T00:26:26.506Z,85.06
2023-01-15T00:27:26.488Z,85.72
2023-01-15T00:28:26.451Z,85.51
2023-01-15T00:29:26.483Z,85.61
2023-01-15T00:30:26.488Z,86.63
2023-01-15T00:31:26.548Z,87.55
2023-01-15T00:32:26.460Z,88.61
2023-01-15T00:33:26.458Z,88.81
2023-01-15T00:34:26.435Z,89.63
2023-01-15T00:35:26.379Z,90.28
2023-01-15T00:36:26.442Z,90.59
2023-01-15T00:37:26.370Z,90.69
2023-01-15T00:38:26.345Z,90.89
2023-01-15T00:39:26.484Z,90.38
2023-01-15T00:40:26.322Z,90.59
2023-01-15T00:41:26.311Z,90.38
2023-01-15T00:42:26.319Z,90.38
2023-01-15T00:43:26.292Z,90.79
2023-01-15T00:44:26.331Z,91.35
2023-01-15T00:45:26.309Z,90.79
2023-01-15T00:46:26.294Z,91.75
2023-01-15T00:47:26.239Z,92.16
2023-01-15T00:48:26.265Z,91.35
2023-01-15T00:49:26.281Z,91.75
2023-01-15T00:50:26.227Z,91.09
2023-01-15T00:51:26.243Z,91.71
2023-01-15T00:52:26.198Z,92.26
2023-01-15T00:53:26.172Z,92.67
2023-01-15T00:54:26.227Z,91.85
2023-01-15T00:55:26.213Z,92.16
2023-01-15T00:56:26.202Z,92.26
2023-01-15T00:57:26.141Z,92.22
2023-01-15T00:58:26.241Z,92.46
2023-01-15T00:59:26.172Z,91.40
2023-01-15T01:00:26.099Z,90.99
2023-01-15T01:01:26.265Z,91.55
2023-01-15T01:02:26.257Z,91.50
2023-01-15T01:03:26.087Z,91.61
2023-01-15T01:04:26.079Z,91.55
2023-01-15T01:05:26.069Z,92.67
2023-01-15T01:06:26.066Z,91.20
2023-01-15T01:07:26.152Z,90.99
2023-01-15T01:08:26.051Z,90.59
2023-01-15T01:09:26.014Z,91.30
2023-01-15T01:10:25.996Z,90.89
2023-01-15T01:11:26.001Z,89.57
2023-01-15T01:12:25.965Z,89.67
2023-01-15T01:13:26.175Z,89.32
2023-01-15T01:14:26.018Z,89.32
2023-01-15T01:15:26.032Z,88.51
2023-01-15T01:16:25.983Z,88.06
2023-01-15T01:17:26.029Z,87.85
2023-01-15T01:18:25.937Z,88.51
2023-01-15T01:19:25.922Z,88.16
2023-01-15T01:20:25.908Z,88.31
2023-01-15T01:21:25.918Z,88.36
2023-01-15T01:22:25.854Z,88.16
2023-01-15T01:23:25.863Z,88.57
2023-01-15T01:24:25.955Z,88.67
2023-01-15T01:25:25.865Z,88.81
2023-01-15T01:26:25.864Z,88.46
2023-01-15T01:27:25.797Z,88.40
2023-01-15T01:28:25.794Z,88.81
2023-01-15T01:29:25.816Z,88.40
2023-01-15T01:30:25.775Z,88.77
2023-01-15T01:31:25.881Z,88.06
2023-01-15T01:32:25.753Z,88.46
2023-01-15T01:33:25.738Z,87.55
2023-01-15T01:34:25.873Z,88.36
2023-01-15T01:35:25.752Z,88.16
2023-01-15T01:36:25.706Z,87.85
2023-01-15T01:37:25.697Z,88.36
2023-01-15T01:38:25.801Z,88.26
2023-01-15T01:39:25.682Z,87.96
2023-01-15T01:40:25.839Z,88.16
2023-01-15T01:41:25.655Z,87.96
2023-01-15T01:42:25.680Z,88.57
2023-01-15T01:43:25.811Z,87.51
2023-01-15T01:44:25.641Z,88.26
2023-01-15T01:45:25.690Z,87.35
2023-01-15T01:46:25.648Z,87.00
2023-01-15T01:47:25.657Z,86.69
2023-01-15T01:48:25.605Z,86.80
2023-01-15T01:49:25.670Z,86.90
2023-01-15T01:50:25.541Z,87.10
2023-01-15T01:51:25.574Z,87.00
2023-01-15T01:52:25.534Z,86.69
2023-01-15T01:53:25.543Z,86.69
2023-01-15T01:54:25.577Z,87.30
2023-01-15T01:55:25.685Z,87.00
2023-01-15T01:56:25.474Z,87.51
2023-01-15T01:57:25.491Z,87.92
2023-01-15T01:58:25.570Z,88.16
2023-01-15T01:59:25.540Z,87.45
2023-01-15T02:00:25.500Z,87.75
2023-01-15T02:01:25.562Z,86.69
2023-01-15T02:02:25.480Z,86.80
2023-01-15T02:03:25.485Z,86.19
2023-01-15T02:04:25.538Z,85.88
2023-01-15T02:05:25.383Z,86.08
2023-01-15T02:06:25.397Z,86.29
2023-01-15T02:07:25.453Z,86.29
2023-01-15T02:08:25.400Z,85.33
2023-01-15T02:09:25.366Z,85.13
2023-01-15T02:10:25.398Z,85.23
2023-01-15T02:11:25.337Z,86.04
2023-01-15T02:12:25.326Z,84.62
2023-01-15T02:13:25.328Z,84.38
2023-01-15T02:14:25.324Z,84.17
2023-01-15T02:15:25.266Z,83.97
2023-01-15T02:16:25.354Z,83.76
2023-01-15T02:17:25.256Z,84.48
2023-01-15T02:18:25.265Z,84.99
2023-01-15T02:19:25.276Z,84.78
2023-01-15T02:20:25.233Z,85.23
2023-01-15T02:21:25.221Z,85.03
2023-01-15T02:22:25.206Z,85.43
2023-01-15T02:23:25.240Z,85.03
2023-01-15T02:24:25.301Z,85.43
2023-01-15T02:25:25.183Z,84.72
2023-01-15T02:26:25.161Z,84.58
2023-01-15T02:27:25.138Z,84.82
2023-01-15T02:28:25.133Z,84.72
2023-01-15T02:29:25.192Z,83.56
2023-01-15T02:30:25.111Z,82.51
2023-01-15T02:31:25.179Z,82.92
2023-01-15T02:32:25.095Z,83.46
2023-01-15T02:33:25.105Z,83.26
2023-01-15T02:34:25.106Z,83.46
2023-01-15T02:35:25.048Z,82.65
2023-01-15T02:36:25.040Z,82.51
2023-01-15T02:37:25.223Z,81.79
2023-01-15T02:38:25.069Z,82.61
2023-01-15T02:39:25.119Z,83.01
2023-01-15T02:40:25.001Z,82.51
2023-01-15T02:41:25.028Z,82.31
2023-01-15T02:42:25.288Z,83.46
2023-01-15T02:43:25.020Z,82.71
2023-01-15T02:44:25.041Z,82.81
2023-01-15T02:45:24.943Z,83.53
2023-01-15T02:46:24.967Z,83.32
2023-01-15T02:47:25.171Z,83.73
2023-01-15T02:48:24.930Z,83.56
2023-01-15T02:49:24.957Z,83.97
2023-01-15T02:50:24.893Z,83.46
2023-01-15T02:51:24.897Z,83.56
2023-01-15T02:52:24.871Z,83.26
2023-01-15T02:53:25.051Z,83.67
2023-01-15T02:54:24.953Z,83.76
2023-01-15T02:55:24.943Z,83.91
2023-01-15T02:56:24.821Z,83.56
2023-01-15T02:57:24.925Z,83.67
2023-01-15T02:58:24.818Z,83.97
2023-01-15T02:59:24.852Z,83.56
2023-01-15T03:00:24.781Z,84.28
2023-01-15T03:01:24.876Z,84.28
2023-01-15T03:02:24.860Z,84.78
2023-01-15T03:03:24.742Z,84.21
2023-01-15T03:04:24.796Z,84.31
2023-01-15T03:05:24.739Z,84.68
2023-01-15T03:06:24.787Z,85.03
2023-01-15T03:07:24.774Z,84.68
2023-01-15T03:08:24.832Z,83.97
2023-01-15T03:09:25.164Z,83.87
2023-01-15T03:10:24.723Z,83.56
2023-01-15T03:11:24.691Z,83.87
2023-01-15T03:12:24.646Z,83.56
2023-01-15T03:13:24.741Z,83.87
2023-01-15T03:14:24.671Z,83.67
2023-01-15T03:15:24.682Z,84.17
2023-01-15T03:16:24.650Z,84.48
2023-01-15T03:17:24.592Z,84.31
2023-01-15T03:18:24.589Z,84.07
2023-01-15T03:19:24.609Z,84.58
2023-01-15T03:20:24.607Z,84.68
2023-01-15T03:21:24.544Z,84.48
2023-01-15T03:22:24.578Z,84.88
2023-01-15T03:23:24.567Z,84.68
2023-01-15T03:24:24.536Z,84.28
2023-01-15T03:25:24.575Z,83.67
2023-01-15T03:26:24.589Z,84.28
2023-01-15T03:27:24.516Z,84.58
2023-01-15T03:28:24.463Z,84.28
2023-01-15T03:29:24.775Z,84.88
2023-01-15T03:30:24.522Z,85.33
2023-01-15T03:31:24.464Z,85.53
2023-01-15T03:32:24.443Z,85.23
2023-01-15T03:33:24.509Z,85.64
2023-01-15T03:34:24.460Z,85.33
2023-01-15T03:35:24.410Z,85.23
2023-01-15T03:36:24.444Z,85.33
2023-01-15T03:37:24.375Z,85.33
2023-01-15T03:38:24.376Z,85.33
2023-01-15T03:39:24.465Z,85.49
2023-01-15T03:40:24.348Z,85.53
2023-01-15T03:41:24.346Z,85.23
2023-01-15T03:42:24.322Z,85.74
2023-01-15T03:43:24.327Z,86.25
2023-01-15T03:44:24.366Z,85.64
2023-01-15T03:45:24.295Z,85.64
2023-01-15T03:46:24.345Z,85.23
2023-01-15T03:47:24.280Z,85.23
2023-01-15T03:48:24.306Z,85.33
2023-01-15T03:49:24.261Z,84.52
2023-01-15T03:50:24.238Z,84.92
2023-01-15T03:51:24.251Z,85.03
2023-01-15T03:52:24.390Z,85.53
2023-01-15T03:53:24.200Z,85.43
2023-01-15T03:54:24.292Z,85.53
2023-01-15T03:55:24.222Z,85.33
2023-01-15T03:56:24.225Z,85.53
2023-01-15T03:57:24.219Z,85.64
2023-01-15T03:58:24.137Z,85.64
2023-01-15T03:59:24.224Z,86.65
2023-01-15T04:00:24.173Z,85.43
2023-01-15T04:01:24.252Z,85.94
2023-01-15T04:02:24.109Z,86.04
2023-01-15T04:03:24.086Z,85.43
2023-01-15T04:04:24.455Z,85.74
2023-01-15T04:05:24.089Z,86.65
2023-01-15T04:06:24.095Z,86.19
2023-01-15T04:07:24.043Z,86.29
2023-01-15T04:08:24.093Z,86.29
2023-01-15T04:09:24.051Z,86.19
2023-01-15T04:10:24.120Z,86.04
2023-01-15T04:11:23.998Z,86.08
2023-01-15T04:12:24.047Z,86.29
2023-01-15T04:13:23.991Z,85.74
2023-01-15T04:14:24.063Z,85.98
2023-01-15T04:15:24.011Z,86.59
2023-01-15T04:16:23.979Z,85.88
2023-01-15T04:17:24.712Z,85.74
2023-01-15T04:18:24.509Z,86.15
2023-01-15T04:19:24.755Z,86.69
2023-01-15T04:20:23.909Z,86.59
2023-01-15T04:21:24.046Z,86.19
2023-01-15T04:22:23.876Z,86.29
2023-01-15T04:23:23.897Z,85.88
2023-01-15T04:24:23.899Z,85.84
2023-01-15T04:25:23.837Z,85.68
2023-01-15T04:26:23.847Z,86.19
2023-01-15T04:27:23.826Z,86.59
2023-01-15T04:28:24.038Z,86.69
2023-01-15T04:29:23.847Z,86.69
2023-01-15T04:30:23.833Z,86.80
2023-01-15T04:31:23.884Z,87.00
2023-01-15T04:32:23.793Z,87.30
2023-01-15T04:33:23.861Z,87.61
2023-01-15T04:34:23.772Z,87.51
2023-01-15T04:35:23.787Z,87.51
2023-01-15T04:36:23.845Z,87.41
2023-01-15T04:37:23.724Z,87.51
2023-01-15T04:38:23.738Z,87.30
2023-01-15T04:39:23.753Z,87.30
2023-01-15T04:40:23.707Z,87.51
2023-01-15T04:41:23.670Z,87.92
2023-01-15T04:42:23.671Z,87.71
2023-01-15T04:43:23.666Z,88.46
2023-01-15T04:44:23.751Z,88.42
2023-01-15T04:45:23.664Z,89.28
2023-01-15T04:46:23.707Z,89.28
2023-01-15T04:47:23.639Z,89.07
2023-01-15T04:48:23.620Z,90.03
2023-01-15T04:49:23.738Z,89.53
2023-01-15T04:50:23.613Z,90.44
2023-01-15T04:51:23.631Z,90.34
2023-01-15T04:52:23.549Z,90.44
2023-01-15T04:53:23.557Z,91.46
2023-01-15T04:54:23.604Z,92.01
2023-01-15T04:55:23.534Z,91.71
2023-01-15T04:56:23.515Z,92.32
2023-01-15T04:57:23.586Z,92.52
2023-01-15T04:58:23.490Z,92.83
2023-01-15T04:59:23.697Z,93.07
2023-01-15T05:00:23.454Z,93.07
2023-01-15T05:01:23.589Z,93.03
2023-01-15T05:02:23.534Z,92.93
2023-01-15T05:03:23.543Z,92.22
2023-01-15T05:04:23.551Z,92.32
2023-01-15T05:05:23.403Z,90.85
2023-01-15T05:06:23.400Z,90.69
2023-01-15T05:07:23.393Z,90.79
2023-01-15T05:08:23.384Z,91.05
2023-01-15T05:09:23.547Z,91.40
2023-01-15T05:10:23.384Z,91.26
2023-01-15T05:11:23.335Z,91.20
2023-01-15T05:12:23.361Z,90.99
2023-01-15T05:13:23.330Z,90.85
2023-01-15T05:14:23.357Z,91.09
2023-01-15T05:15:23.337Z,90.64
2023-01-15T05:16:23.310Z,91.16
2023-01-15T05:17:23.380Z,90.95
2023-01-15T05:18:23.254Z,91.09
2023-01-15T05:19:23.277Z,90.69
2023-01-15T05:20:23.304Z,90.79
2023-01-15T05:21:23.234Z,91.56
2023-01-15T05:22:23.225Z,91.50
2023-01-15T05:23:23.260Z,90.79
2023-01-15T05:24:23.531Z,91.16
2023-01-15T05:25:23.198Z,90.08
2023-01-15T05:26:23.282Z,90.55
2023-01-15T05:27:23.164Z,90.55
2023-01-15T05:28:23.191Z,88.92
2023-01-15T05:29:23.300Z,89.42
2023-01-15T05:30:23.129Z,89.01
2023-01-15T05:31:23.155Z,88.92
2023-01-15T05:32:23.158Z,89.01
2023-01-15T05:33:23.109Z,89.32
2023-01-15T05:34:23.141Z,88.71
2023-01-15T05:35:23.114Z,89.48
2023-01-15T05:36:23.169Z,88.51
2023-01-15T05:37:23.054Z,88.16
2023-01-15T05:38:23.201Z,87.55
2023-01-15T05:39:23.089Z,87.14
2023-01-15T05:40:23.026Z,87.14
2023-01-15T05:41:23.021Z,87.55
2023-01-15T05:42:22.992Z,87.45
2023-01-15T05:43:22.992Z,87.24
2023-01-15T05:44:23.148Z,87.35
2023-01-15T05:45:22.960Z,87.45
2023-01-15T05:46:23.073Z,87.45
2023-01-15T05:47:22.961Z,87.35
2023-01-15T05:48:22.948Z,86.83
2023-01-15T05:49:22.950Z,86.74
2023-01-15T05:50:23.040Z,86.98
2023-01-15T05:51:22.899Z,86.98
2023-01-15T05:52:22.878Z,87.14
2023-01-15T05:53:22.984Z,87.29
2023-01-15T05:54:22.895Z,87.59
2023-01-15T05:55:22.898Z,86.88
2023-01-15T05:56:23.118Z,87.08
2023-01-15T05:57:22.905Z,86.74
2023-01-15T05:58:22.826Z,87.35
2023-01-15T05:59:22.839Z,87.08
2023-01-15T06:00:22.889Z,87.04
2023-01-15T06:01:22.858Z,87.18
2023-01-15T06:02:22.857Z,87.38
2023-01-15T06:03:23.012Z,87.69
2023-01-15T06:04:22.808Z,87.38
2023-01-15T06:05:22.743Z,87.59
2023-01-15T06:06:22.735Z,87.59
2023-01-15T06:07:22.818Z,87.49
2023-01-15T06:08:22.722Z,87.69
2023-01-15T06:09:22.790Z,87.79
2023-01-15T06:10:22.753Z,87.90
2023-01-15T06:11:22.677Z,87.79
2023-01-15T06:12:22.694Z,88.61
2023-01-15T06:13:22.685Z,87.90
2023-01-15T06:14:22.684Z,87.69
2023-01-15T06:15:22.635Z,87.79
2023-01-15T06:16:22.687Z,88.61
2023-01-15T06:17:22.621Z,88.20
2023-01-15T06:18:22.630Z,88.45
2023-01-15T06:19:22.623Z,88.20
2023-01-15T06:20:22.608Z,88.10
2023-01-15T06:21:22.607Z,88.10
2023-01-15T06:22:22.792Z,88.65
2023-01-15T06:23:22.560Z,88.00
2023-01-15T06:24:22.580Z,88.40
2023-01-15T06:25:22.537Z,87.79
2023-01-15T06:26:22.516Z,87.69
2023-01-15T06:27:22.512Z,87.90
2023-01-15T06:28:22.607Z,88.10
2023-01-15T06:29:22.645Z,88.45
2023-01-15T06:30:22.472Z,88.55
2023-01-15T06:31:22.579Z,88.20
2023-01-15T06:32:22.462Z,88.75
2023-01-15T06:33:22.542Z,89.47
2023-01-15T06:34:22.506Z,88.96
2023-01-15T06:35:22.440Z,89.16
2023-01-15T06:36:22.403Z,90.08
2023-01-15T06:37:22.389Z,89.81
2023-01-15T06:38:22.383Z,90.42
2023-01-15T06:39:22.698Z,90.42
2023-01-15T06:40:22.365Z,90.63
2023-01-15T06:41:22.388Z,89.30
2023-01-15T06:42:22.411Z,89.92
2023-01-15T06:43:22.319Z,89.10
2023-01-15T06:44:22.762Z,89.61
2023-01-15T06:45:22.558Z,90.63
2023-01-15T06:46:22.319Z,90.67
2023-01-15T06:47:23.091Z,91.24
2023-01-15T06:48:22.388Z,91.39
2023-01-15T06:49:22.276Z,90.88
2023-01-15T06:50:22.271Z,90.96
2023-01-15T06:51:22.301Z,91.05
2023-01-15T06:52:22.236Z,91.95
2023-01-15T06:53:22.212Z,94.74
2023-01-15T06:54:22.251Z,95.70
2023-01-15T06:55:22.252Z,96.57
2023-01-15T06:56:22.172Z,97.69
2023-01-15T06:57:22.186Z,99.18
2023-01-15T06:58:22.184Z,99.54
2023-01-15T06:59:22.171Z,99.95
2023-01-15T07:00:22.169Z,99.99
2023-01-15T07:01:22.276Z,99.99
2023-01-15T07:02:22.255Z,99.99
2023-01-15T07:03:22.105Z,99.99
2023-01-15T07:04:22.107Z,99.99
2023-01-15T07:05:22.096Z,99.99
2023-01-15T07:06:22.077Z,99.99
2023-01-15T07:07:22.108Z,99.99
2023-01-15T07:08:22.105Z,99.99
2023-01-15T07:09:22.111Z,99.99
2023-01-15T07:10:22.069Z,99.99
2023-01-15T07:11:22.013Z,99.99
2023-01-15T07:12:22.010Z,99.99
2023-01-15T07:13:22.041Z,99.99
2023-01-15T07:14:22.215Z,99.99
2023-01-15T07:15:21.977Z,99.99
2023-01-15T07:16:22.126Z,99.99
2023-01-15T07:17:22.046Z,99.99
2023-01-15T07:18:21.943Z,99.99
2023-01-15T07:19:22.345Z,99.99
2023-01-15T07:20:22.006Z,99.99
2023-01-15T07:21:21.913Z,99.99
2023-01-15T07:22:21.921Z,99.99
2023-01-15T07:23:21.914Z,99.99
2023-01-15T07:24:22.219Z,99.99
2023-01-15T07:25:22.038Z,99.99
2023-01-15T07:26:21.994Z,99.99
2023-01-15T07:27:21.888Z,99.99
2023-01-15T07:28:22.032Z,99.99
2023-01-15T07:29:21.996Z,99.99
2023-01-15T07:30:21.907Z,99.99
2023-01-15T07:31:21.948Z,99.99
2023-01-15T07:32:21.784Z,99.99
2023-01-15T07:33:21.808Z,99.99
2023-01-15T07:34:22.104Z,99.99
2023-01-15T07:35:21.782Z,99.99
2023-01-15T07:36:22.046Z,99.99
2023-01-15T07:37:21.756Z,99.99
2023-01-15T07:38:21.720Z,99.99
2023-01-15T07:39:21.758Z,99.99
2023-01-15T07:40:21.700Z,99.99
2023-01-15T07:41:21.710Z,99.99
2023-01-15T07:42:21.711Z,99.99
2023-01-15T07:43:21.670Z,99.99
2023-01-15T07:44:21.681Z,99.99
2023-01-15T07:45:21.725Z,99.99
2023-01-15T07:46:21.640Z,99.99
2023-01-15T07:47:21.641Z,99.99
2023-01-15T07:48:21.639Z,99.99
2023-01-15T07:49:21.762Z,99.99
2023-01-15T07:50:21.652Z,99.99
2023-01-15T07:51:21.583Z,99.99
2023-01-15T07:52:21.644Z,99.99
2023-01-15T07:53:21.568Z,99.99
2023-01-15T07:54:21.791Z,99.99
2023-01-15T07:55:21.582Z,99.99
2023-01-15T07:56:21.545Z,99.99
2023-01-15T07:57:21.529Z,99.99
2023-01-15T07:58:21.504Z,99.99
2023-01-15T07:59:21.531Z,99.99
2023-01-15T08:00:21.624Z,99.99
2023-01-15T08:01:21.650Z,99.99
2023-01-15T08:02:21.615Z,99.99
2023-01-15T08:03:21.530Z,99.99
2023-01-15T08:04:21.578Z,99.99
2023-01-15T08:05:21.501Z,99.99
2023-01-15T08:06:21.417Z,99.99
2023-01-15T08:07:21.407Z,99.99
2023-01-15T08:08:21.445Z,99.99
2023-01-15T08:09:21.471Z,99.99
2023-01-15T08:10:21.482Z,99.99
2023-01-15T08:11:21.360Z,99.99
2023-01-15T08:12:21.456Z,99.99
2023-01-15T08:13:21.354Z,99.99
2023-01-15T08:14:21.338Z,99.99
2023-01-15T08:15:21.394Z,99.99
2023-01-15T08:16:21.334Z,99.99
2023-01-15T08:17:21.332Z,99.99
2023-01-15T08:18:21.293Z,99.99
2023-01-15T08:19:21.360Z,99.99
2023-01-15T08:20:21.286Z,99.99
2023-01-15T08:21:21.307Z,99.99
2023-01-15T08:22:21.349Z,99.99
2023-01-15T08:23:21.237Z,99.99
2023-01-15T08:24:21.235Z,99.99
2023-01-15T08:25:21.414Z,99.99
2023-01-15T08:26:21.243Z,99.99
2023-01-15T08:27:21.311Z,99.99
2023-01-15T08:28:21.187Z,99.99
2023-01-15T08:29:21.228Z,99.99
2023-01-15T08:30:21.242Z,99.99
2023-01-15T08:31:21.271Z,99.99
2023-01-15T08:32:21.650Z,99.99
2023-01-15T08:33:21.314Z,99.99
2023-01-15T08:34:21.492Z,99.99
2023-01-15T08:35:21.269Z,99.99
2023-01-15T08:36:21.208Z,99.99
2023-01-15T08:37:22.122Z,99.99
2023-01-15T08:38:21.118Z,99.99
2023-01-15T08:39:21.438Z,99.99
2023-01-15T08:40:21.224Z,99.99
2023-01-15T08:41:21.106Z,99.99
2023-01-15T08:42:21.926Z,99.99
2023-01-15T08:43:21.100Z,99.99
2023-01-15T08:44:21.666Z,99.99
2023-01-15T08:45:21.002Z,99.99
2023-01-15T08:46:20.989Z,99.99
2023-01-15T08:47:21.192Z,99.99
2023-01-15T08:48:20.965Z,99.99
2023-01-15T08:49:21.155Z,99.99
2023-01-15T08:50:21.079Z,99.99
2023-01-15T08:51:20.967Z,99.99
2023-01-15T08:52:21.107Z,99.99
2023-01-15T08:53:20.903Z,99.99
2023-01-15T08:54:21.260Z,99.99
2023-01-15T08:55:20.930Z,99.99
2023-01-15T08:56:20.904Z,99.99
2023-01-15T08:57:20.947Z,99.99
2023-01-15T08:58:20.918Z,99.99
2023-01-15T08:59:21.106Z,99.99
2023-01-15T09:00:20.875Z,99.99
2023-01-15T09:01:20.972Z,99.99
2023-01-15T09:02:20.848Z,99.99
2023-01-15T09:03:20.824Z,99.99
2023-01-15T09:04:20.970Z,99.99
2023-01-15T09:05:20.810Z,99.99
2023-01-15T09:06:20.767Z,99.99
2023-01-15T09:07:20.960Z,99.99
2023-01-15T09:08:20.771Z,99.99
2023-01-15T09:09:20.882Z,99.99
2023-01-15T09:10:20.725Z,99.99
2023-01-15T09:11:20.743Z,99.99
2023-01-15T09:12:20.772Z,99.99
2023-01-15T09:13:20.791Z,99.99
2023-01-15T09:14:57.350Z,99.99
2023-01-15T09:15:21.686Z,99.99
2023-01-15T09:16:20.773Z,99.99
2023-01-15T09:17:20.737Z,99.99
2023-01-15T09:18:20.669Z,99.99
2023-01-15T09:19:21.166Z,99.99
2023-01-15T09:20:20.614Z,99.99
2023-01-15T09:21:20.730Z,99.99
2023-01-15T09:22:20.607Z,99.99
2023-01-15T09:23:20.793Z,99.99
2023-01-15T09:24:20.720Z,99.99
2023-01-15T09:25:20.559Z,99.99
2023-01-15T09:26:20.631Z,99.99
2023-01-15T09:27:20.604Z,99.99
2023-01-15T09:28:20.594Z,99.99
2023-01-15T09:29:20.681Z,99.99
2023-01-15T09:30:21.231Z,99.99
2023-01-15T09:31:20.504Z,99.99
2023-01-15T09:32:20.497Z,99.99
2023-01-15T09:33:20.479Z,99.99
2023-01-15T09:34:20.493Z,99.99
2023-01-15T09:35:20.474Z,99.99
2023-01-15T09:36:20.448Z,99.99
2023-01-15T09:37:20.432Z,99.99
2023-01-15T09:38:20.462Z,99.99
2023-01-15T09:39:20.447Z,99.99
2023-01-15T09:40:20.443Z,99.99
2023-01-15T09:41:20.385Z,99.99
2023-01-15T09:42:20.380Z,99.99
2023-01-15T09:43:20.379Z,99.99
2023-01-15T09:44:20.535Z,99.99
2023-01-15T09:45:20.353Z,99.99
2023-01-15T09:46:20.398Z,99.99
2023-01-15T09:47:20.342Z,99.99
2023-01-15T09:48:20.308Z,99.99
2023-01-15T09:49:20.301Z,99.99
2023-01-15T09:50:20.374Z,99.99
2023-01-15T09:51:20.277Z,99.99
2023-01-15T09:52:20.265Z,99.99
2023-01-15T09:53:20.274Z,99.99
2023-01-15T09:54:20.284Z,99.99
2023-01-15T09:55:20.295Z,99.99
2023-01-15T09:56:20.261Z,99.99
2023-01-15T09:57:20.249Z,99.99
2023-01-15T09:58:20.230Z,99.99
2023-01-15T09:59:20.236Z,99.99
2023-01-15T10:00:20.331Z,99.99
2023-01-15T10:01:20.251Z,99.99
2023-01-15T10:02:20.182Z,99.99
2023-01-15T10:03:20.318Z,99.99
2023-01-15T10:04:20.198Z,99.99
2023-01-15T10:05:20.188Z,99.99
2023-01-15T10:06:20.191Z,99.99
2023-01-15T10:07:20.119Z,99.99
2023-01-15T10:08:20.187Z,99.99
2023-01-15T10:09:20.113Z,99.99
2023-01-15T10:10:20.163Z,99.99
2023-01-15T10:11:20.086Z,99.99
2023-01-15T10:12:20.073Z,99.99
2023-01-15T10:13:20.052Z,99.99
2023-01-15T10:14:20.067Z,99.99
2023-01-15T10:15:20.030Z,99.99
2023-01-15T10:16:20.051Z,99.99
2023-01-15T10:17:20.103Z,99.99
2023-01-15T10:18:20.030Z,99.99
2023-01-15T10:19:19.992Z,99.99
2023-01-15T10:20:19.982Z,99.99
2023-01-15T10:21:20.000Z,99.99
2023-01-15T10:22:20.001Z,99.99
2023-01-15T10:23:19.933Z,99.99
2023-01-15T10:24:19.986Z,99.99
2023-01-15T10:25:19.930Z,99.99
2023-01-15T10:26:19.906Z,99.99
2023-01-15T10:27:19.916Z,99.99
2023-01-15T10:28:19.896Z,99.99
2023-01-15T10:29:19.899Z,99.99
2023-01-15T10:30:19.933Z,99.99
2023-01-15T10:31:19.887Z,99.99
2023-01-15T10:32:19.957Z,99.99
2023-01-15T10:33:19.825Z,99.99
2023-01-15T10:34:19.889Z,99.99
2023-01-15T10:35:19.898Z,99.99
2023-01-15T10:36:19.828Z,99.99
2023-01-15T10:37:19.813Z,99.99
2023-01-15T10:38:19.777Z,99.99
2023-01-15T10:39:21.249Z,99.99
2023-01-15T10:40:19.888Z,99.99
2023-01-15T10:41:19.754Z,99.99
2023-01-15T10:42:19.723Z,99.99
2023-01-15T10:43:19.731Z,99.99
2023-01-15T10:44:19.704Z,99.99
2023-01-15T10:45:19.839Z,99.99
2023-01-15T10:46:19.750Z,99.99
2023-01-15T10:47:19.694Z,99.99
2023-01-15T10:48:19.710Z,99.99
2023-01-15T10:49:19.679Z,99.99
2023-01-15T10:50:19.717Z,99.99
2023-01-15T10:51:19.633Z,99.99
2023-01-15T10:52:19.667Z,99.99
2023-01-15T10:53:19.646Z,99.99
2023-01-15T10:54:19.600Z,99.99
2023-01-15T10:55:19.602Z,99.99
2023-01-15T10:56:19.610Z,99.99
2023-01-15T10:57:19.596Z,99.99
2023-01-15T10:58:19.564Z,99.99
2023-01-15T10:59:19.550Z,99.99
2023-01-15T11:00:19.555Z,99.99
2023-01-15T11:01:19.624Z,99.99
2023-01-15T11:02:19.593Z,99.99
2023-01-15T11:03:19.509Z,99.99
2023-01-15T11:04:19.522Z,99.99
2023-01-15T11:05:19.489Z,99.99
2023-01-15T11:06:19.509Z,99.99
2023-01-15T11:07:19.459Z,99.99
2023-01-15T11:09:05.926Z,99.99
2023-01-15T11:09:20.455Z,99.99
2023-01-15T11:10:19.439Z,99.99
2023-01-15T11:11:19.418Z,99.99
2023-01-15T11:12:19.404Z,99.99
2023-01-15T11:13:19.392Z,99.99
2023-01-15T11:14:19.407Z,99.99
2023-01-15T11:15:19.382Z,99.99
2023-01-15T11:16:19.362Z,99.99
2023-01-15T11:17:19.344Z,99.99
2023-01-15T11:18:19.339Z,99.99
2023-01-15T11:19:19.325Z,99.99
2023-01-15T11:20:19.353Z,99.99
2023-01-15T11:21:19.314Z,99.99
2023-01-15T11:22:19.293Z,99.99
2023-01-15T11:23:19.283Z,99.99
2023-01-15T11:24:19.276Z,99.99
2023-01-15T11:25:19.317Z,99.99
2023-01-15T11:26:19.251Z,99.99
2023-01-15T11:27:19.252Z,99.99
2023-01-15T11:28:21.294Z,99.99
2023-01-15T11:29:19.238Z,99.99
2023-01-15T11:30:19.216Z,99.99
2023-01-15T11:31:19.226Z,99.99
2023-01-15T11:32:19.190Z,99.99
2023-01-15T11:33:19.206Z,99.99
2023-01-15T11:34:21.585Z,99.99
2023-01-15T11:35:19.165Z,99.99
2023-01-15T11:36:19.142Z,99.99
2023-01-15T11:37:19.129Z,99.99
2023-01-15T11:38:19.124Z,99.99
2023-01-15T11:39:19.157Z,99.99
2023-01-15T11:40:19.109Z,99.99
2023-01-15T11:41:19.098Z,99.99
2023-01-15T11:42:19.110Z,99.99
2023-01-15T11:43:19.063Z,99.99
2023-01-15T11:44:19.054Z,99.99
2023-01-15T11:45:19.082Z,99.99
2023-01-15T11:46:19.088Z,99.99
2023-01-15T11:47:19.024Z,99.99
2023-01-15T11:48:19.015Z,99.99
2023-01-15T11:49:18.997Z,99.99
2023-01-15T11:50:19.018Z,99.99
2023-01-15T11:51:19.007Z,99.99
2023-01-15T11:52:18.976Z,99.99
2023-01-15T11:53:18.956Z,99.99
2023-01-15T11:54:18.944Z,99.99
2023-01-15T11:55:18.958Z,99.99
2023-01-15T11:56:18.938Z,99.99
2023-01-15T11:57:18.931Z,99.99
2023-01-15T11:58:18.906Z,99.99
2023-01-15T11:59:18.944Z,99.99
2023-01-15T12:00:18.913Z,99.99
2023-01-15T12:01:18.928Z,99.99
2023-01-15T12:02:18.860Z,99.99
2023-01-15T12:03:18.924Z,99.99
2023-01-15T12:04:18.921Z,99.99
2023-01-15T12:05:18.843Z,99.99
2023-01-15T12:06:18.824Z,99.99
2023-01-15T12:07:18.803Z,99.99
2023-01-15T12:08:18.797Z,99.99
2023-01-15T12:09:18.793Z,99.99
2023-01-15T12:10:18.800Z,99.99
2023-01-15T12:11:26.685Z,99.99
2023-01-15T12:12:19.773Z,99.99
2023-01-15T12:13:18.751Z,99.99
2023-01-15T12:14:18.743Z,99.99
2023-01-15T12:15:18.746Z,99.99
2023-01-15T12:16:18.814Z,99.99
2023-01-15T12:17:18.703Z,99.99
2023-01-15T12:18:18.712Z,99.99
2023-01-15T12:19:18.677Z,99.99
2023-01-15T12:20:18.680Z,99.99
2023-01-15T12:21:18.656Z,99.99
2023-01-15T12:22:18.649Z,99.99
2023-01-15T12:23:18.646Z,99.99
2023-01-15T12:24:18.638Z,99.99
2023-01-15T12:25:18.642Z,99.99
2023-01-15T12:26:18.629Z,99.99
2023-01-15T12:27:18.593Z,99.99
2023-01-15T12:28:18.598Z,99.99
2023-01-15T12:29:18.587Z,99.99
2023-01-15T12:30:18.589Z,99.99
2023-01-15T12:31:18.588Z,99.99
2023-01-15T12:32:18.546Z,99.99
2023-01-15T12:33:18.539Z,99.99
2023-01-15T12:34:18.523Z,99.99
2023-01-15T12:35:18.520Z,99.99
2023-01-15T12:36:18.534Z,99.99
2023-01-15T12:37:18.483Z,99.99
2023-01-15T12:38:18.500Z,99.99
2023-01-15T12:39:18.502Z,99.99
2023-01-15T12:40:18.664Z,99.99
2023-01-15T12:41:18.433Z,99.99
2023-01-15T12:42:18.445Z,99.99
2023-01-15T12:43:18.422Z,99.99
2023-01-15T12:44:18.464Z,99.99
2023-01-15T12:45:18.424Z,99.99
2023-01-15T12:46:18.424Z,99.99
2023-01-15T12:47:18.376Z,99.99
2023-01-15T12:48:18.389Z,99.99
2023-01-15T12:49:18.381Z,99.99
2023-01-15T12:50:18.378Z,99.99
2023-01-15T12:51:18.338Z,99.99
2023-01-15T12:52:18.325Z,99.99